sensor_id;sensor_type;location;lat;lon;timestamp;temperature;humidity
33815;DHT22;20121;51.910;8.406;2022-07-24T00:00:07;16.00;99.90
33815;DHT22;20121;51.910;8.406;2022-07-24T00:02:33;16.00;99.90
33815;DHT22;20121;51.910;8.406;2022-07-24T00:04:59;16.00;99.90
33815;DHT22;20121;51.910;8.406;2022-07-24T00:07:27;16.00;99.90
33815;DHT22;20121;51.910;8.406;2022-07-24T00:09:53;15.90;99.90
33815;DHT22;20121;51.910;8.406;2022-07-24T00:12:19;15.90;99.90
33815;DHT22;20121;51.910;8.406;2022-07-24T00:14:46;15.90;99.90
33815;DHT22;20121;51.910;8.406;2022-07-24T00:17:11;15.80;99.90
33815;DHT22;20121;51.910;8.406;2022-07-24T00:19:37;15.80;99.90
33815;DHT22;20121;51.910;8.406;2022-07-24T00:22:03;15.80;99.90
33815;DHT22;20121;51.910;8.406;2022-07-24T00:24:29;15.80;99.90
33815;DHT22;20121;51.910;8.406;2022-07-24T00:26:55;15.80;99.90
33815;DHT22;20121;51.910;8.406;2022-07-24T00:29:21;15.70;99.90
33815;DHT22;20121;51.910;8.406;2022-07-24T00:31:46;15.70;99.90
33815;DHT22;20121;51.910;8.406;2022-07-24T00:34:12;15.70;99.90
33815;DHT22;20121;51.910;8.406;2022-07-24T00:36:38;15.70;99.90
33815;DHT22;20121;51.910;8.406;2022-07-24T00:39:04;15.60;99.90
33815;DHT22;20121;51.910;8.406;2022-07-24T00:41:29;15.60;99.90
33815;DHT22;20121;51.910;8.406;2022-07-24T00:44:08;15.60;99.90
33815;DHT22;20121;51.910;8.406;2022-07-24T00:46:36;15.50;99.90
33815;DHT22;20121;51.910;8.406;2022-07-24T00:49:04;15.50;99.90
33815;DHT22;20121;51.910;8.406;2022-07-24T00:51:30;15.50;99.90
33815;DHT22;20121;51.910;8.406;2022-07-24T00:53:56;15.50;99.90
33815;DHT22;20121;51.910;8.406;2022-07-24T00:56:22;15.50;99.90
33815;DHT22;20121;51.910;8.406;2022-07-24T00:58:48;15.40;99.90
33815;DHT22;20121;51.910;8.406;2022-07-24T01:01:15;15.40;99.90
33815;DHT22;20121;51.910;8.406;2022-07-24T01:03:41;15.40;99.90
33815;DHT22;20121;51.910;8.406;2022-07-24T01:06:07;15.40;99.90
33815;DHT22;20121;51.910;8.406;2022-07-24T01:08:34;15.40;99.90
33815;DHT22;20121;51.910;8.406;2022-07-24T01:11:03;15.40;99.90
33815;DHT22;20121;51.910;8.406;2022-07-24T01:13:29;15.30;99.90
33815;DHT22;20121;51.910;8.406;2022-07-24T01:15:56;15.30;99.90
33815;DHT22;20121;51.910;8.406;2022-07-24T01:18:22;15.20;99.90
33815;DHT22;20121;51.910;8.406;2022-07-24T01:20:48;15.30;99.90
33815;DHT22;20121;51.910;8.406;2022-07-24T01:23:14;15.30;99.90
33815;DHT22;20121;51.910;8.406;2022-07-24T01:25:41;15.20;99.90
33815;DHT22;20121;51.910;8.406;2022-07-24T01:28:07;15.20;99.90
33815;DHT22;20121;51.910;8.406;2022-07-24T01:30:32;15.20;99.90
33815;DHT22;20121;51.910;8.406;2022-07-24T01:32:58;15.20;99.90
33815;DHT22;20121;51.910;8.406;2022-07-24T01:35:24;15.20;99.90
33815;DHT22;20121;51.910;8.406;2022-07-24T01:37:53;15.10;99.90
33815;DHT22;20121;51.910;8.406;2022-07-24T01:40:20;15.10;99.90
33815;DHT22;20121;51.910;8.406;2022-07-24T01:42:47;15.10;99.90
33815;DHT22;20121;51.910;8.406;2022-07-24T01:45:13;15.10;99.90
33815;DHT22;20121;51.910;8.406;2022-07-24T01:47:40;15.10;99.90
33815;DHT22;20121;51.910;8.406;2022-07-24T01:50:06;15.00;99.90
33815;DHT22;20121;51.910;8.406;2022-07-24T01:52:31;15.00;99.90
33815;DHT22;20121;51.910;8.406;2022-07-24T01:54:57;15.00;99.90
33815;DHT22;20121;51.910;8.406;2022-07-24T01:57:23;15.00;99.90
33815;DHT22;20121;51.910;8.406;2022-07-24T01:59:48;15.00;99.90
33815;DHT22;20121;51.910;8.406;2022-07-24T02:02:14;14.90;99.90
33815;DHT22;20121;51.910;8.406;2022-07-24T02:04:40;14.90;99.90
33815;DHT22;20121;51.910;8.406;2022-07-24T02:07:05;14.90;99.90
33815;DHT22;20121;51.910;8.406;2022-07-24T02:09:31;14.90;99.90
33815;DHT22;20121;51.910;8.406;2022-07-24T02:11:57;14.90;99.90
33815;DHT22;20121;51.910;8.406;2022-07-24T02:14:22;14.90;99.90
33815;DHT22;20121;51.910;8.406;2022-07-24T02:16:49;14.90;99.90
33815;DHT22;20121;51.910;8.406;2022-07-24T02:19:14;15.30;99.90
33815;DHT22;20121;51.910;8.406;2022-07-24T02:21:40;15.60;99.90
33815;DHT22;20121;51.910;8.406;2022-07-24T02:24:06;14.80;99.90
33815;DHT22;20121;51.910;8.406;2022-07-24T02:26:32;14.80;99.90
33815;DHT22;20121;51.910;8.406;2022-07-24T02:28:57;15.00;99.90
33815;DHT22;20121;51.910;8.406;2022-07-24T02:31:23;14.90;99.90
33815;DHT22;20121;51.910;8.406;2022-07-24T02:33:49;14.70;99.90
33815;DHT22;20121;51.910;8.406;2022-07-24T02:36:14;14.70;99.90
33815;DHT22;20121;51.910;8.406;2022-07-24T02:41:07;14.70;99.90
33815;DHT22;20121;51.910;8.406;2022-07-24T02:43:33;14.70;99.90
33815;DHT22;20121;51.910;8.406;2022-07-24T02:45:59;14.60;99.90
33815;DHT22;20121;51.910;8.406;2022-07-24T02:48:24;14.60;99.90
33815;DHT22;20121;51.910;8.406;2022-07-24T02:50:50;14.50;99.90
33815;DHT22;20121;51.910;8.406;2022-07-24T02:53:16;14.50;99.90
33815;DHT22;20121;51.910;8.406;2022-07-24T02:55:42;14.50;99.90
33815;DHT22;20121;51.910;8.406;2022-07-24T02:58:07;14.50;99.90
33815;DHT22;20121;51.910;8.406;2022-07-24T03:00:33;14.40;99.90
33815;DHT22;20121;51.910;8.406;2022-07-24T03:02:59;14.40;99.90
33815;DHT22;20121;51.910;8.406;2022-07-24T03:05:24;14.40;99.90
33815;DHT22;20121;51.910;8.406;2022-07-24T03:07:50;14.40;99.90
33815;DHT22;20121;51.910;8.406;2022-07-24T03:10:16;14.40;99.90
33815;DHT22;20121;51.910;8.406;2022-07-24T03:12:42;14.40;99.90
33815;DHT22;20121;51.910;8.406;2022-07-24T03:15:09;14.40;99.90
33815;DHT22;20121;51.910;8.406;2022-07-24T03:17:35;14.30;99.90
33815;DHT22;20121;51.910;8.406;2022-07-24T03:20:01;14.30;99.90
33815;DHT22;20121;51.910;8.406;2022-07-24T03:22:27;14.20;99.90
33815;DHT22;20121;51.910;8.406;2022-07-24T03:27:19;14.20;99.90
33815;DHT22;20121;51.910;8.406;2022-07-24T03:29:45;14.10;99.90
33815;DHT22;20121;51.910;8.406;2022-07-24T03:32:10;14.40;99.90
33815;DHT22;20121;51.910;8.406;2022-07-24T03:37:02;14.10;99.90
33815;DHT22;20121;51.910;8.406;2022-07-24T03:39:28;14.20;99.90
33815;DHT22;20121;51.910;8.406;2022-07-24T03:41:53;14.00;99.90
33815;DHT22;20121;51.910;8.406;2022-07-24T03:44:19;14.10;99.90
33815;DHT22;20121;51.910;8.406;2022-07-24T03:46:45;14.30;99.90
33815;DHT22;20121;51.910;8.406;2022-07-24T03:49:10;13.90;99.90
33815;DHT22;20121;51.910;8.406;2022-07-24T03:51:36;14.00;99.90
33815;DHT22;20121;51.910;8.406;2022-07-24T03:54:02;14.00;99.90
33815;DHT22;20121;51.910;8.406;2022-07-24T03:56:28;14.00;99.90
33815;DHT22;20121;51.910;8.406;2022-07-24T03:58:54;14.00;99.90
33815;DHT22;20121;51.910;8.406;2022-07-24T04:01:20;14.10;99.90
33815;DHT22;20121;51.910;8.406;2022-07-24T04:03:46;14.10;99.90
33815;DHT22;20121;51.910;8.406;2022-07-24T04:06:12;15.10;99.90
33815;DHT22;20121;51.910;8.406;2022-07-24T04:08:38;14.30;99.90
33815;DHT22;20121;51.910;8.406;2022-07-24T04:11:04;14.10;99.90
33815;DHT22;20121;51.910;8.406;2022-07-24T04:13:31;14.10;99.90
33815;DHT22;20121;51.910;8.406;2022-07-24T04:15:57;14.20;99.90
33815;DHT22;20121;51.910;8.406;2022-07-24T04:18:23;14.20;99.90
33815;DHT22;20121;51.910;8.406;2022-07-24T04:20:49;14.20;99.90
33815;DHT22;20121;51.910;8.406;2022-07-24T04:23:15;14.20;99.90
33815;DHT22;20121;51.910;8.406;2022-07-24T04:25:41;14.30;99.90
33815;DHT22;20121;51.910;8.406;2022-07-24T04:28:06;14.30;99.90
33815;DHT22;20121;51.910;8.406;2022-07-24T04:30:32;14.40;99.90
33815;DHT22;20121;51.910;8.406;2022-07-24T04:32:58;14.30;99.90
33815;DHT22;20121;51.910;8.406;2022-07-24T04:35:24;14.40;99.90
33815;DHT22;20121;51.910;8.406;2022-07-24T04:37:50;14.40;99.90
33815;DHT22;20121;51.910;8.406;2022-07-24T04:40:15;14.50;99.90
33815;DHT22;20121;51.910;8.406;2022-07-24T04:42:41;14.40;99.90
33815;DHT22;20121;51.910;8.406;2022-07-24T04:45:07;14.50;99.90
33815;DHT22;20121;51.910;8.406;2022-07-24T04:47:35;14.60;99.90
33815;DHT22;20121;51.910;8.406;2022-07-24T04:50:01;14.50;99.90
33815;DHT22;20121;51.910;8.406;2022-07-24T04:52:27;14.70;99.90
33815;DHT22;20121;51.910;8.406;2022-07-24T04:54:52;14.70;99.90
33815;DHT22;20121;51.910;8.406;2022-07-24T04:57:18;14.90;99.90
33815;DHT22;20121;51.910;8.406;2022-07-24T04:59:44;15.00;99.90
33815;DHT22;20121;51.910;8.406;2022-07-24T05:02:09;15.00;99.90
33815;DHT22;20121;51.910;8.406;2022-07-24T05:04:35;15.30;99.90
33815;DHT22;20121;51.910;8.406;2022-07-24T05:07:02;15.40;99.90
33815;DHT22;20121;51.910;8.406;2022-07-24T05:09:28;15.70;99.90
33815;DHT22;20121;51.910;8.406;2022-07-24T05:11:54;15.90;99.90
33815;DHT22;20121;51.910;8.406;2022-07-24T05:14:20;16.20;99.90
33815;DHT22;20121;51.910;8.406;2022-07-24T05:16:46;16.40;99.90
33815;DHT22;20121;51.910;8.406;2022-07-24T05:19:11;16.60;99.90
33815;DHT22;20121;51.910;8.406;2022-07-24T05:21:37;16.80;99.90
33815;DHT22;20121;51.910;8.406;2022-07-24T05:24:03;17.00;99.90
33815;DHT22;20121;51.910;8.406;2022-07-24T05:26:29;17.20;99.90
33815;DHT22;20121;51.910;8.406;2022-07-24T05:28:58;17.50;99.90
33815;DHT22;20121;51.910;8.406;2022-07-24T05:31:24;17.60;99.90
33815;DHT22;20121;51.910;8.406;2022-07-24T05:33:50;17.80;99.90
33815;DHT22;20121;51.910;8.406;2022-07-24T05:36:16;18.10;99.90
33815;DHT22;20121;51.910;8.406;2022-07-24T05:38:42;18.30;99.90
33815;DHT22;20121;51.910;8.406;2022-07-24T05:41:09;18.60;99.90
33815;DHT22;20121;51.910;8.406;2022-07-24T05:43:35;18.70;99.90
33815;DHT22;20121;51.910;8.406;2022-07-24T05:46:01;19.00;99.90
33815;DHT22;20121;51.910;8.406;2022-07-24T05:48:26;19.10;99.90
33815;DHT22;20121;51.910;8.406;2022-07-24T05:50:52;19.20;99.90
33815;DHT22;20121;51.910;8.406;2022-07-24T05:53:18;19.20;99.90
33815;DHT22;20121;51.910;8.406;2022-07-24T05:55:43;19.20;99.90
33815;DHT22;20121;51.910;8.406;2022-07-24T05:58:09;19.30;99.90
33815;DHT22;20121;51.910;8.406;2022-07-24T06:00:35;19.40;99.90
33815;DHT22;20121;51.910;8.406;2022-07-24T06:03:00;19.60;99.90
33815;DHT22;20121;51.910;8.406;2022-07-24T06:05:26;20.30;99.90
33815;DHT22;20121;51.910;8.406;2022-07-24T06:07:52;19.70;99.90
33815;DHT22;20121;51.910;8.406;2022-07-24T06:10:17;19.80;99.90
33815;DHT22;20121;51.910;8.406;2022-07-24T06:12:43;19.90;99.90
33815;DHT22;20121;51.910;8.406;2022-07-24T06:15:09;20.10;99.90
33815;DHT22;20121;51.910;8.406;2022-07-24T06:17:35;20.00;99.90
33815;DHT22;20121;51.910;8.406;2022-07-24T06:20:00;20.30;99.90
33815;DHT22;20121;51.910;8.406;2022-07-24T06:22:26;20.40;99.90
33815;DHT22;20121;51.910;8.406;2022-07-24T06:24:51;20.60;99.90
33815;DHT22;20121;51.910;8.406;2022-07-24T06:27:17;20.80;99.90
33815;DHT22;20121;51.910;8.406;2022-07-24T06:29:43;20.70;99.90
33815;DHT22;20121;51.910;8.406;2022-07-24T06:32:08;21.00;99.90
33815;DHT22;20121;51.910;8.406;2022-07-24T06:34:34;21.10;99.90
33815;DHT22;20121;51.910;8.406;2022-07-24T06:37:00;21.40;99.90
33815;DHT22;20121;51.910;8.406;2022-07-24T06:39:25;21.20;99.90
33815;DHT22;20121;51.910;8.406;2022-07-24T06:41:51;21.20;99.90
33815;DHT22;20121;51.910;8.406;2022-07-24T06:44:17;21.30;99.90
33815;DHT22;20121;51.910;8.406;2022-07-24T06:46:42;21.40;99.90
33815;DHT22;20121;51.910;8.406;2022-07-24T06:49:08;21.40;99.90
33815;DHT22;20121;51.910;8.406;2022-07-24T06:51:33;20.80;99.90
33815;DHT22;20121;51.910;8.406;2022-07-24T06:53:59;21.70;99.90
33815;DHT22;20121;51.910;8.406;2022-07-24T06:56:25;21.90;99.90
33815;DHT22;20121;51.910;8.406;2022-07-24T06:58:50;22.10;99.90
33815;DHT22;20121;51.910;8.406;2022-07-24T07:01:16;22.40;99.90
33815;DHT22;20121;51.910;8.406;2022-07-24T07:03:41;22.50;99.90
33815;DHT22;20121;51.910;8.406;2022-07-24T07:06:08;22.20;99.90
33815;DHT22;20121;51.910;8.406;2022-07-24T07:08:34;22.30;99.90
33815;DHT22;20121;51.910;8.406;2022-07-24T07:11:00;22.30;99.90
33815;DHT22;20121;51.910;8.406;2022-07-24T07:13:25;22.30;99.90
33815;DHT22;20121;51.910;8.406;2022-07-24T07:15:51;22.40;99.90
33815;DHT22;20121;51.910;8.406;2022-07-24T07:18:17;22.30;99.90
33815;DHT22;20121;51.910;8.406;2022-07-24T07:20:42;22.70;99.90
33815;DHT22;20121;51.910;8.406;2022-07-24T07:23:08;22.70;99.90
33815;DHT22;20121;51.910;8.406;2022-07-24T07:25:34;22.80;99.90
33815;DHT22;20121;51.910;8.406;2022-07-24T07:27:59;22.90;99.90
33815;DHT22;20121;51.910;8.406;2022-07-24T07:30:25;23.10;99.90
33815;DHT22;20121;51.910;8.406;2022-07-24T07:32:51;23.30;99.90
33815;DHT22;20121;51.910;8.406;2022-07-24T07:35:16;23.40;99.90
33815;DHT22;20121;51.910;8.406;2022-07-24T07:37:44;23.60;99.90
33815;DHT22;20121;51.910;8.406;2022-07-24T07:40:10;23.60;99.90
33815;DHT22;20121;51.910;8.406;2022-07-24T07:42:36;23.50;99.90
33815;DHT22;20121;51.910;8.406;2022-07-24T07:45:02;23.60;99.90
33815;DHT22;20121;51.910;8.406;2022-07-24T07:47:27;23.80;99.90
33815;DHT22;20121;51.910;8.406;2022-07-24T07:49:53;23.90;99.90
33815;DHT22;20121;51.910;8.406;2022-07-24T07:52:19;24.00;99.90
33815;DHT22;20121;51.910;8.406;2022-07-24T07:54:44;24.20;99.90
33815;DHT22;20121;51.910;8.406;2022-07-24T07:57:10;24.30;99.90
33815;DHT22;20121;51.910;8.406;2022-07-24T07:59:36;24.50;99.90
33815;DHT22;20121;51.910;8.406;2022-07-24T08:02:02;24.50;99.90
33815;DHT22;20121;51.910;8.406;2022-07-24T08:04:30;24.50;99.90
33815;DHT22;20121;51.910;8.406;2022-07-24T08:06:56;24.70;99.90
33815;DHT22;20121;51.910;8.406;2022-07-24T08:09:21;24.90;99.90
33815;DHT22;20121;51.910;8.406;2022-07-24T08:11:47;24.90;99.90
33815;DHT22;20121;51.910;8.406;2022-07-24T08:14:13;25.10;99.90
33815;DHT22;20121;51.910;8.406;2022-07-24T08:16:38;25.30;99.90
33815;DHT22;20121;51.910;8.406;2022-07-24T08:19:04;25.30;99.90
33815;DHT22;20121;51.910;8.406;2022-07-24T08:21:30;25.60;99.90
33815;DHT22;20121;51.910;8.406;2022-07-24T08:23:57;25.90;99.90
33815;DHT22;20121;51.910;8.406;2022-07-24T08:26:22;26.00;99.20
33815;DHT22;20121;51.910;8.406;2022-07-24T08:28:48;26.20;98.30
33815;DHT22;20121;51.910;8.406;2022-07-24T08:31:14;26.50;96.70
33815;DHT22;20121;51.910;8.406;2022-07-24T08:33:40;26.50;97.00
33815;DHT22;20121;51.910;8.406;2022-07-24T08:36:06;26.70;97.40
33815;DHT22;20121;51.910;8.406;2022-07-24T08:38:31;26.70;99.90
33815;DHT22;20121;51.910;8.406;2022-07-24T08:40:57;26.70;97.20
33815;DHT22;20121;51.910;8.406;2022-07-24T08:43:23;26.90;98.20
33815;DHT22;20121;51.910;8.406;2022-07-24T08:45:49;27.20;97.00
33815;DHT22;20121;51.910;8.406;2022-07-24T08:48:18;26.90;99.90
33815;DHT22;20121;51.910;8.406;2022-07-24T08:50:46;27.40;97.00
33815;DHT22;20121;51.910;8.406;2022-07-24T08:53:11;27.40;98.30
33815;DHT22;20121;51.910;8.406;2022-07-24T08:55:37;27.40;97.10
33815;DHT22;20121;51.910;8.406;2022-07-24T08:58:03;27.60;96.90
33815;DHT22;20121;51.910;8.406;2022-07-24T09:00:31;27.80;95.90
33815;DHT22;20121;51.910;8.406;2022-07-24T09:02:57;28.10;94.00
33815;DHT22;20121;51.910;8.406;2022-07-24T09:05:23;28.10;93.90
33815;DHT22;20121;51.910;8.406;2022-07-24T09:07:48;28.30;93.20
33815;DHT22;20121;51.910;8.406;2022-07-24T09:10:16;28.30;92.40
33815;DHT22;20121;51.910;8.406;2022-07-24T09:12:45;28.20;92.90
33815;DHT22;20121;51.910;8.406;2022-07-24T09:15:12;28.40;94.30
33815;DHT22;20121;51.910;8.406;2022-07-24T09:17:51;28.60;93.00
33815;DHT22;20121;51.910;8.406;2022-07-24T09:20:17;28.90;92.10
33815;DHT22;20121;51.910;8.406;2022-07-24T09:22:43;29.10;92.60
33815;DHT22;20121;51.910;8.406;2022-07-24T09:25:13;29.10;91.50
33815;DHT22;20121;51.910;8.406;2022-07-24T09:28:00;29.30;93.40
33815;DHT22;20121;51.910;8.406;2022-07-24T09:30:27;29.00;91.00
33815;DHT22;20121;51.910;8.406;2022-07-24T09:35:28;29.50;91.70
33815;DHT22;20121;51.910;8.406;2022-07-24T09:37:56;29.80;90.90
33815;DHT22;20121;51.910;8.406;2022-07-24T09:40:29;29.90;90.40
33815;DHT22;20121;51.910;8.406;2022-07-24T09:46:07;30.20;90.30
33815;DHT22;20121;51.910;8.406;2022-07-24T09:48:48;30.40;87.40
33815;DHT22;20121;51.910;8.406;2022-07-24T09:51:17;30.40;88.40
33815;DHT22;20121;51.910;8.406;2022-07-24T09:53:52;30.50;89.90
33815;DHT22;20121;51.910;8.406;2022-07-24T09:56:18;30.30;88.10
33815;DHT22;20121;51.910;8.406;2022-07-24T10:01:10;30.10;89.90
33815;DHT22;20121;51.910;8.406;2022-07-24T10:03:37;30.40;90.60
33815;DHT22;20121;51.910;8.406;2022-07-24T10:06:08;30.60;87.90
33815;DHT22;20121;51.910;8.406;2022-07-24T10:08:37;30.30;83.80
33815;DHT22;20121;51.910;8.406;2022-07-24T10:11:03;30.30;84.20
33815;DHT22;20121;51.910;8.406;2022-07-24T10:13:29;30.30;88.60
33815;DHT22;20121;51.910;8.406;2022-07-24T10:18:30;30.70;90.20
33815;DHT22;20121;51.910;8.406;2022-07-24T10:21:06;30.90;84.30
33815;DHT22;20121;51.910;8.406;2022-07-24T10:26:47;31.00;84.70
33815;DHT22;20121;51.910;8.406;2022-07-24T10:29:19;31.00;82.90
33815;DHT22;20121;51.910;8.406;2022-07-24T10:31:50;30.80;82.90
33815;DHT22;20121;51.910;8.406;2022-07-24T10:42:21;30.10;84.20
33815;DHT22;20121;51.910;8.406;2022-07-24T10:45:13;29.90;86.40
33815;DHT22;20121;51.910;8.406;2022-07-24T10:47:39;29.90;86.50
33815;DHT22;20121;51.910;8.406;2022-07-24T10:50:05;29.90;83.90
33815;DHT22;20121;51.910;8.406;2022-07-24T10:52:32;29.70;86.00
33815;DHT22;20121;51.910;8.406;2022-07-24T10:55:34;30.00;86.80
33815;DHT22;20121;51.910;8.406;2022-07-24T11:00:39;31.30;86.10
33815;DHT22;20121;51.910;8.406;2022-07-24T11:03:08;31.20;82.80
33815;DHT22;20121;51.910;8.406;2022-07-24T11:05:42;31.50;79.60
33815;DHT22;20121;51.910;8.406;2022-07-24T11:10:50;31.70;79.40
33815;DHT22;20121;51.910;8.406;2022-07-24T11:18:42;31.80;77.60
33815;DHT22;20121;51.910;8.406;2022-07-24T11:21:08;31.80;77.30
33815;DHT22;20121;51.910;8.406;2022-07-24T11:23:35;31.60;76.40
33815;DHT22;20121;51.910;8.406;2022-07-24T11:29:18;31.70;76.00
33815;DHT22;20121;51.910;8.406;2022-07-24T11:31:45;31.40;76.50
33815;DHT22;20121;51.910;8.406;2022-07-24T11:34:12;31.50;81.70
33815;DHT22;20121;51.910;8.406;2022-07-24T11:36:44;31.60;77.50
33815;DHT22;20121;51.910;8.406;2022-07-24T11:39:10;31.50;76.90
33815;DHT22;20121;51.910;8.406;2022-07-24T11:42:12;31.60;76.30
33815;DHT22;20121;51.910;8.406;2022-07-24T11:44:44;31.80;78.70
33815;DHT22;20121;51.910;8.406;2022-07-24T11:47:20;32.20;74.50
33815;DHT22;20121;51.910;8.406;2022-07-24T11:52:19;32.00;74.60
33815;DHT22;20121;51.910;8.406;2022-07-24T11:54:47;32.00;72.80
33815;DHT22;20121;51.910;8.406;2022-07-24T11:57:22;32.00;74.80
33815;DHT22;20121;51.910;8.406;2022-07-24T11:59:49;32.10;70.80
33815;DHT22;20121;51.910;8.406;2022-07-24T12:02:16;32.00;74.30
33815;DHT22;20121;51.910;8.406;2022-07-24T12:04:42;31.90;72.50
33815;DHT22;20121;51.910;8.406;2022-07-24T12:07:17;31.80;73.30
33815;DHT22;20121;51.910;8.406;2022-07-24T12:09:54;32.00;74.00
33815;DHT22;20121;51.910;8.406;2022-07-24T12:12:40;32.20;76.00
33815;DHT22;20121;51.910;8.406;2022-07-24T12:15:13;32.10;74.20
33815;DHT22;20121;51.910;8.406;2022-07-24T12:20:32;32.20;72.80
33815;DHT22;20121;51.910;8.406;2022-07-24T12:22:59;32.50;72.80
33815;DHT22;20121;51.910;8.406;2022-07-24T12:25:27;32.60;73.70
33815;DHT22;20121;51.910;8.406;2022-07-24T12:28:17;32.80;70.80
33815;DHT22;20121;51.910;8.406;2022-07-24T12:30:49;32.70;71.60
33815;DHT22;20121;51.910;8.406;2022-07-24T12:38:33;32.60;73.60
33815;DHT22;20121;51.910;8.406;2022-07-24T12:43:29;32.60;70.30
33815;DHT22;20121;51.910;8.406;2022-07-24T12:46:08;32.50;68.40
33815;DHT22;20121;51.910;8.406;2022-07-24T12:51:09;32.10;70.00
33815;DHT22;20121;51.910;8.406;2022-07-24T12:53:38;32.20;72.10
33815;DHT22;20121;51.910;8.406;2022-07-24T12:56:09;32.20;71.00
33815;DHT22;20121;51.910;8.406;2022-07-24T12:59:07;32.40;68.70
33815;DHT22;20121;51.910;8.406;2022-07-24T13:01:54;32.40;70.10
33815;DHT22;20121;51.910;8.406;2022-07-24T13:04:22;32.30;72.00
33815;DHT22;20121;51.910;8.406;2022-07-24T13:06:53;32.30;68.00
33815;DHT22;20121;51.910;8.406;2022-07-24T13:09:20;32.40;68.30
33815;DHT22;20121;51.910;8.406;2022-07-24T13:11:47;32.40;69.10
33815;DHT22;20121;51.910;8.406;2022-07-24T13:14:14;32.40;68.60
33815;DHT22;20121;51.910;8.406;2022-07-24T13:16:42;32.20;69.60
33815;DHT22;20121;51.910;8.406;2022-07-24T13:19:08;32.20;67.00
33815;DHT22;20121;51.910;8.406;2022-07-24T13:21:35;32.20;67.80
33815;DHT22;20121;51.910;8.406;2022-07-24T13:24:03;32.20;70.70
33815;DHT22;20121;51.910;8.406;2022-07-24T13:26:29;32.50;69.70
33815;DHT22;20121;51.910;8.406;2022-07-24T13:28:55;32.50;68.90
33815;DHT22;20121;51.910;8.406;2022-07-24T13:31:20;32.50;67.70
33815;DHT22;20121;51.910;8.406;2022-07-24T13:33:47;32.30;66.60
33815;DHT22;20121;51.910;8.406;2022-07-24T13:36:14;32.30;67.00
33815;DHT22;20121;51.910;8.406;2022-07-24T13:38:40;32.50;65.80
33815;DHT22;20121;51.910;8.406;2022-07-24T13:41:06;32.50;67.70
33815;DHT22;20121;51.910;8.406;2022-07-24T13:43:31;32.50;65.40
33815;DHT22;20121;51.910;8.406;2022-07-24T13:45:57;32.30;68.10
33815;DHT22;20121;51.910;8.406;2022-07-24T13:48:23;32.20;66.60
33815;DHT22;20121;51.910;8.406;2022-07-24T13:50:49;32.10;66.20
33815;DHT22;20121;51.910;8.406;2022-07-24T13:53:15;31.90;67.60
33815;DHT22;20121;51.910;8.406;2022-07-24T13:55:41;31.90;67.00
33815;DHT22;20121;51.910;8.406;2022-07-24T13:58:07;31.70;67.60
33815;DHT22;20121;51.910;8.406;2022-07-24T14:00:32;31.60;70.30
33815;DHT22;20121;51.910;8.406;2022-07-24T14:02:58;31.80;65.10
33815;DHT22;20121;51.910;8.406;2022-07-24T14:05:27;31.80;66.50
33815;DHT22;20121;51.910;8.406;2022-07-24T14:07:53;31.80;67.50
33815;DHT22;20121;51.910;8.406;2022-07-24T14:10:20;31.70;67.20
33815;DHT22;20121;51.910;8.406;2022-07-24T14:12:45;31.70;66.10
33815;DHT22;20121;51.910;8.406;2022-07-24T14:15:12;31.50;64.80
33815;DHT22;20121;51.910;8.406;2022-07-24T14:17:38;31.40;65.30
33815;DHT22;20121;51.910;8.406;2022-07-24T14:20:05;31.30;68.00
33815;DHT22;20121;51.910;8.406;2022-07-24T14:22:37;31.40;67.80
33815;DHT22;20121;51.910;8.406;2022-07-24T14:25:04;31.20;66.50
33815;DHT22;20121;51.910;8.406;2022-07-24T14:27:30;31.20;67.40
33815;DHT22;20121;51.910;8.406;2022-07-24T14:29:56;31.30;70.70
33815;DHT22;20121;51.910;8.406;2022-07-24T14:32:22;31.10;70.20
33815;DHT22;20121;51.910;8.406;2022-07-24T14:37:14;31.20;68.30
33815;DHT22;20121;51.910;8.406;2022-07-24T14:39:39;31.10;66.90
33815;DHT22;20121;51.910;8.406;2022-07-24T14:42:05;31.00;68.90
33815;DHT22;20121;51.910;8.406;2022-07-24T14:44:31;30.80;69.50
33815;DHT22;20121;51.910;8.406;2022-07-24T14:46:57;30.70;68.30
33815;DHT22;20121;51.910;8.406;2022-07-24T14:49:24;30.80;67.30
33815;DHT22;20121;51.910;8.406;2022-07-24T14:51:50;30.80;68.60
33815;DHT22;20121;51.910;8.406;2022-07-24T14:54:15;30.70;68.30
33815;DHT22;20121;51.910;8.406;2022-07-24T14:56:41;30.60;69.90
33815;DHT22;20121;51.910;8.406;2022-07-24T14:59:07;30.60;67.20
33815;DHT22;20121;51.910;8.406;2022-07-24T15:01:34;30.50;68.30
33815;DHT22;20121;51.910;8.406;2022-07-24T15:03:59;30.60;70.30
33815;DHT22;20121;51.910;8.406;2022-07-24T15:06:27;30.60;69.40
33815;DHT22;20121;51.910;8.406;2022-07-24T15:08:53;30.70;67.40
33815;DHT22;20121;51.910;8.406;2022-07-24T15:11:19;30.70;68.80
33815;DHT22;20121;51.910;8.406;2022-07-24T15:13:47;30.70;68.30
33815;DHT22;20121;51.910;8.406;2022-07-24T15:16:13;30.60;68.50
33815;DHT22;20121;51.910;8.406;2022-07-24T15:18:39;30.60;66.60
33815;DHT22;20121;51.910;8.406;2022-07-24T15:21:05;30.60;69.90
33815;DHT22;20121;51.910;8.406;2022-07-24T15:23:31;30.40;68.10
33815;DHT22;20121;51.910;8.406;2022-07-24T15:25:56;30.30;71.10
33815;DHT22;20121;51.910;8.406;2022-07-24T15:28:22;30.10;68.50
33815;DHT22;20121;51.910;8.406;2022-07-24T15:30:48;30.10;69.50
33815;DHT22;20121;51.910;8.406;2022-07-24T15:33:13;30.10;69.70
33815;DHT22;20121;51.910;8.406;2022-07-24T15:35:39;30.10;70.50
33815;DHT22;20121;51.910;8.406;2022-07-24T15:38:05;30.10;71.70
33815;DHT22;20121;51.910;8.406;2022-07-24T15:40:30;30.20;70.30
33815;DHT22;20121;51.910;8.406;2022-07-24T15:42:57;30.20;70.70
33815;DHT22;20121;51.910;8.406;2022-07-24T15:45:24;30.20;71.40
33815;DHT22;20121;51.910;8.406;2022-07-24T15:47:50;29.80;76.30
33815;DHT22;20121;51.910;8.406;2022-07-24T15:50:17;30.10;69.20
33815;DHT22;20121;51.910;8.406;2022-07-24T15:52:42;30.10;69.90
33815;DHT22;20121;51.910;8.406;2022-07-24T15:55:08;30.10;70.70
33815;DHT22;20121;51.910;8.406;2022-07-24T15:57:34;30.10;72.50
33815;DHT22;20121;51.910;8.406;2022-07-24T16:00:00;30.10;70.20
33815;DHT22;20121;51.910;8.406;2022-07-24T16:02:26;30.10;70.80
33815;DHT22;20121;51.910;8.406;2022-07-24T16:04:51;30.00;69.50
33815;DHT22;20121;51.910;8.406;2022-07-24T16:07:18;30.00;71.00
33815;DHT22;20121;51.910;8.406;2022-07-24T16:09:48;30.00;69.80
33815;DHT22;20121;51.910;8.406;2022-07-24T16:12:14;29.90;71.90
33815;DHT22;20121;51.910;8.406;2022-07-24T16:14:40;29.90;68.80
33815;DHT22;20121;51.910;8.406;2022-07-24T16:17:05;30.00;69.30
33815;DHT22;20121;51.910;8.406;2022-07-24T16:19:32;29.70;70.30
33815;DHT22;20121;51.910;8.406;2022-07-24T16:21:58;29.70;70.90
33815;DHT22;20121;51.910;8.406;2022-07-24T16:24:25;29.60;71.00
33815;DHT22;20121;51.910;8.406;2022-07-24T16:26:51;29.60;71.70
33815;DHT22;20121;51.910;8.406;2022-07-24T16:29:17;29.50;72.30